FR-0052 weather

Cornouailles Heliport
Quimper, Brittany, France

Public forecast

Using degrees Celsius for public forecast. Weather courtesy of forecast.io.

Closest aviation weather report (METAR) to Cornouailles Heliport

Closest report is Quimper-Cornouaille Airport, 2.9 nm (5.5 km) WSW. Retrieved 2020/02/19 16:30 UTC (0 seconds ago):

LFRQ 191630Z AUTO 25009KT 220V280 9999 FEW014 SCT037 OVC045 10/08 Q1024 TEMPO 23015G25KT SHRA BECMG BKN012 OVC021

Closest aviation forecast (TAF) to Cornouailles Heliport

Closest forecast is Quimper-Cornouaille Airport, 2.9 nm (5.5 km) WSW. Retrieved 2020/02/19 12:21 UTC (4 hours ago):

TAF LFRQ 191100Z 1912/2012 26008KT 9999 BKN012 OVC021 TEMPO 1912/1913 4000 -RADZ OVC010 BECMG 1912/1914 23015G25KT TEMPO 1914/1921 SHRA BECMG 2003/2006 23022G35KT OVC012 BECMG 2009/2012 4000 RADZ OVC006